sensor_id;sensor_type;location;lat;lon;timestamp;pressure;altitude;pressure_sealevel;temperature;humidity
37634;BME280;32048;49.902;22.508;2023-04-25T00:00:15;97562.22;;;10.06;100.00
37634;BME280;32048;49.902;22.508;2023-04-25T00:03:03;97555.47;;;10.02;100.00
37634;BME280;32048;49.902;22.508;2023-04-25T00:05:32;97559.16;;;9.99;100.00
37634;BME280;32048;49.902;22.508;2023-04-25T00:07:59;97549.56;;;9.98;100.00
37634;BME280;32048;49.902;22.508;2023-04-25T00:10:26;97547.88;;;9.97;100.00
37634;BME280;32048;49.902;22.508;2023-04-25T00:12:53;97545.38;;;9.95;100.00
37634;BME280;32048;49.902;22.508;2023-04-25T00:15:20;97538.38;;;9.94;100.00
37634;BME280;32048;49.902;22.508;2023-04-25T00:17:47;97537.53;;;9.94;100.00
37634;BME280;32048;49.902;22.508;2023-04-25T00:20:15;97544.50;;;9.95;100.00
37634;BME280;32048;49.902;22.508;2023-04-25T00:22:42;97541.75;;;9.96;100.00
37634;BME280;32048;49.902;22.508;2023-04-25T00:25:09;97533.63;;;9.99;100.00
37634;BME280;32048;49.902;22.508;2023-04-25T00:27:36;97534.69;;;9.97;100.00
37634;BME280;32048;49.902;22.508;2023-04-25T00:30:04;97535.66;;;9.96;100.00
37634;BME280;32048;49.902;22.508;2023-04-25T00:32:31;97527.75;;;9.96;100.00
37634;BME280;32048;49.902;22.508;2023-04-25T00:34:58;97522.34;;;9.97;100.00
37634;BME280;32048;49.902;22.508;2023-04-25T00:37:25;97520.56;;;9.98;100.00
37634;BME280;32048;49.902;22.508;2023-04-25T00:39:52;97514.44;;;9.97;100.00
37634;BME280;32048;49.902;22.508;2023-04-25T00:42:21;97513.59;;;9.97;100.00
37634;BME280;32048;49.902;22.508;2023-04-25T00:44:49;97515.63;;;9.93;100.00
37634;BME280;32048;49.902;22.508;2023-04-25T00:47:17;97509.47;;;9.93;100.00
37634;BME280;32048;49.902;22.508;2023-04-25T00:49:44;97509.59;;;9.91;100.00
37634;BME280;32048;49.902;22.508;2023-04-25T00:52:12;97514.97;;;9.90;100.00
37634;BME280;32048;49.902;22.508;2023-04-25T00:54:39;97514.00;;;9.91;100.00
37634;BME280;32048;49.902;22.508;2023-04-25T00:57:06;97514.75;;;9.93;100.00
37634;BME280;32048;49.902;22.508;2023-04-25T00:59:34;97512.84;;;9.95;100.00
37634;BME280;32048;49.902;22.508;2023-04-25T01:02:03;97510.94;;;9.97;100.00
37634;BME280;32048;49.902;22.508;2023-04-25T01:04:31;97512.66;;;9.98;100.00
37634;BME280;32048;49.902;22.508;2023-04-25T01:06:58;97511.69;;;9.99;100.00
37634;BME280;32048;49.902;22.508;2023-04-25T01:09:25;97504.75;;;9.98;100.00
37634;BME280;32048;49.902;22.508;2023-04-25T01:11:52;97504.53;;;10.01;100.00
37634;BME280;32048;49.902;22.508;2023-04-25T01:14:19;97512.44;;;10.01;100.00
37634;BME280;32048;49.902;22.508;2023-04-25T01:16:46;97501.88;;;10.01;100.00
37634;BME280;32048;49.902;22.508;2023-04-25T01:19:16;97500.09;;;10.02;100.00
37634;BME280;32048;49.902;22.508;2023-04-25T01:21:43;97499.97;;;10.03;100.00
37634;BME280;32048;49.902;22.508;2023-04-25T01:24:12;97499.97;;;10.03;100.00
37634;BME280;32048;49.902;22.508;2023-04-25T01:26:41;97488.59;;;10.03;100.00
37634;BME280;32048;49.902;22.508;2023-04-25T01:29:11;97492.91;;;10.04;100.00
37634;BME280;32048;49.902;22.508;2023-04-25T01:31:38;97491.97;;;10.05;100.00
37634;BME280;32048;49.902;22.508;2023-04-25T01:34:06;97492.91;;;10.04;100.00
37634;BME280;32048;49.902;22.508;2023-04-25T01:36:33;97499.97;;;10.03;100.00
37634;BME280;32048;49.902;22.508;2023-04-25T01:39:01;97485.84;;;10.04;100.00
37634;BME280;32048;49.902;22.508;2023-04-25T01:41:28;97482.78;;;9.97;100.00
37634;BME280;32048;49.902;22.508;2023-04-25T01:43:56;97487.34;;;9.95;100.00
37634;BME280;32048;49.902;22.508;2023-04-25T01:46:23;97483.97;;;9.93;100.00
37634;BME280;32048;49.902;22.508;2023-04-25T01:48:51;97483.09;;;9.93;100.00
37634;BME280;32048;49.902;22.508;2023-04-25T01:51:18;97473.63;;;9.90;100.00
37634;BME280;32048;49.902;22.508;2023-04-25T01:53:45;97473.63;;;9.90;100.00
37634;BME280;32048;49.902;22.508;2023-04-25T01:56:12;97470.16;;;9.90;100.00
37634;BME280;32048;49.902;22.508;2023-04-25T01:58:39;97472.88;;;9.88;100.00
37634;BME280;32048;49.902;22.508;2023-04-25T02:01:06;97476.56;;;9.86;100.00
37634;BME280;32048;49.902;22.508;2023-04-25T02:03:34;97470.38;;;9.87;100.00
37634;BME280;32048;49.902;22.508;2023-04-25T02:06:01;97473.09;;;9.85;100.00
37634;BME280;32048;49.902;22.508;2023-04-25T02:08:28;97474.78;;;9.86;100.00
37634;BME280;32048;49.902;22.508;2023-04-25T02:10:57;97471.09;;;9.89;100.00
37634;BME280;32048;49.902;22.508;2023-04-25T02:13:24;97467.72;;;9.87;100.00
37634;BME280;32048;49.902;22.508;2023-04-25T02:15:51;97462.56;;;9.85;100.00
37634;BME280;32048;49.902;22.508;2023-04-25T02:18:18;97459.91;;;9.85;100.00
37634;BME280;32048;49.902;22.508;2023-04-25T02:20:47;97461.59;;;9.86;100.00
37634;BME280;32048;49.902;22.508;2023-04-25T02:23:14;97462.34;;;9.88;100.00
37634;BME280;32048;49.902;22.508;2023-04-25T02:25:45;97461.59;;;9.86;100.00
37634;BME280;32048;49.902;22.508;2023-04-25T02:28:12;97460.66;;;9.87;100.00
37634;BME280;32048;49.902;22.508;2023-04-25T02:30:39;97455.38;;;9.87;100.00
37634;BME280;32048;49.902;22.508;2023-04-25T02:33:07;97451.03;;;9.86;100.00
37634;BME280;32048;49.902;22.508;2023-04-25T02:35:34;97450.22;;;9.86;100.00
37634;BME280;32048;49.902;22.508;2023-04-25T02:38:01;97451.03;;;9.86;100.00
37634;BME280;32048;49.902;22.508;2023-04-25T02:43:17;97450.44;;;9.83;100.00
37634;BME280;32048;49.902;22.508;2023-04-25T02:45:45;97448.63;;;9.83;100.00
37634;BME280;32048;49.902;22.508;2023-04-25T02:48:12;97442.63;;;9.81;100.00
37634;BME280;32048;49.902;22.508;2023-04-25T02:50:39;97449.59;;;9.82;100.00
37634;BME280;32048;49.902;22.508;2023-04-25T02:53:06;97444.19;;;9.84;100.00
37634;BME280;32048;49.902;22.508;2023-04-25T02:55:33;97444.31;;;9.82;100.00
37634;BME280;32048;49.902;22.508;2023-04-25T02:58:00;97439.06;;;9.82;100.00
37634;BME280;32048;49.902;22.508;2023-04-25T03:00:27;97433.78;;;9.82;100.00
37634;BME280;32048;49.902;22.508;2023-04-25T03:02:54;97440.00;;;9.81;100.00
37634;BME280;32048;49.902;22.508;2023-04-25T03:05:22;97442.63;;;9.81;100.00
37634;BME280;32048;49.902;22.508;2023-04-25T03:07:49;97445.16;;;9.83;100.00
37634;BME280;32048;49.902;22.508;2023-04-25T03:10:16;97439.16;;;9.81;100.00
37634;BME280;32048;49.902;22.508;2023-04-25T03:12:43;97438.94;;;9.84;100.00
37634;BME280;32048;49.902;22.508;2023-04-25T03:15:10;97436.41;;;9.82;100.00
37634;BME280;32048;49.902;22.508;2023-04-25T03:17:37;97427.53;;;9.83;100.00
37634;BME280;32048;49.902;22.508;2023-04-25T03:20:05;97433.78;;;9.82;100.00
37634;BME280;32048;49.902;22.508;2023-04-25T03:22:34;97431.97;;;9.83;100.00
37634;BME280;32048;49.902;22.508;2023-04-25T03:25:01;97431.16;;;9.82;100.00
37634;BME280;32048;49.902;22.508;2023-04-25T03:27:28;97436.53;;;9.81;100.00
37634;BME280;32048;49.902;22.508;2023-04-25T03:29:55;97426.81;;;9.81;100.00
37634;BME280;32048;49.902;22.508;2023-04-25T03:32:22;97435.56;;;9.82;100.00
37634;BME280;32048;49.902;22.508;2023-04-25T03:34:49;97436.53;;;9.81;100.00
37634;BME280;32048;49.902;22.508;2023-04-25T03:37:16;97436.53;;;9.81;100.00
37634;BME280;32048;49.902;22.508;2023-04-25T03:39:43;97434.63;;;9.83;100.00
37634;BME280;32048;49.902;22.508;2023-04-25T03:42:10;97436.28;;;9.84;100.00
37634;BME280;32048;49.902;22.508;2023-04-25T03:44:37;97438.00;;;9.85;100.00
37634;BME280;32048;49.902;22.508;2023-04-25T03:47:04;97435.34;;;9.85;100.00
37634;BME280;32048;49.902;22.508;2023-04-25T03:49:33;97436.94;;;9.87;100.00
37634;BME280;32048;49.902;22.508;2023-04-25T03:52:01;97440.31;;;9.89;100.00
37634;BME280;32048;49.902;22.508;2023-04-25T03:54:28;97441.16;;;9.90;100.00
37634;BME280;32048;49.902;22.508;2023-04-25T03:56:55;97435.78;;;9.91;100.00
37634;BME280;32048;49.902;22.508;2023-04-25T03:59:22;97440.91;;;9.93;100.00
37634;BME280;32048;49.902;22.508;2023-04-25T04:01:49;97440.81;;;9.94;100.00
37634;BME280;32048;49.902;22.508;2023-04-25T04:04:16;97449.47;;;9.96;100.00
37634;BME280;32048;49.902;22.508;2023-04-25T04:06:44;97439.88;;;9.95;100.00
37634;BME280;32048;49.902;22.508;2023-04-25T04:09:12;97446.59;;;9.99;100.00
37634;BME280;32048;49.902;22.508;2023-04-25T04:11:39;97443.13;;;9.99;100.00
37634;BME280;32048;49.902;22.508;2023-04-25T04:14:06;97447.47;;;10.00;100.00
37634;BME280;32048;49.902;22.508;2023-04-25T04:16:33;97446.28;;;10.04;100.00
37634;BME280;32048;49.902;22.508;2023-04-25T04:19:01;97435.84;;;10.03;100.00
37634;BME280;32048;49.902;22.508;2023-04-25T04:21:28;97446.19;;;10.06;100.00
37634;BME280;32048;49.902;22.508;2023-04-25T04:23:55;97441.00;;;10.04;100.00
37634;BME280;32048;49.902;22.508;2023-04-25T04:26:22;97443.88;;;10.01;100.00
37634;BME280;32048;49.902;22.508;2023-04-25T04:28:50;97441.22;;;10.01;100.00
37634;BME280;32048;49.902;22.508;2023-04-25T04:31:18;97447.47;;;10.00;100.00
37634;BME280;32048;49.902;22.508;2023-04-25T04:33:46;97441.00;;;10.04;100.00
37634;BME280;32048;49.902;22.508;2023-04-25T04:36:13;97443.44;;;10.07;100.00
37634;BME280;32048;49.902;22.508;2023-04-25T04:38:40;97436.13;;;10.11;100.00
37634;BME280;32048;49.902;22.508;2023-04-25T04:41:09;97441.22;;;10.14;100.00
37634;BME280;32048;49.902;22.508;2023-04-25T04:43:36;97439.31;;;10.16;100.00
37634;BME280;32048;49.902;22.508;2023-04-25T04:46:03;97439.19;;;10.17;100.00
37634;BME280;32048;49.902;22.508;2023-04-25T04:48:31;97436.44;;;10.19;100.00
37634;BME280;32048;49.902;22.508;2023-04-25T04:51:01;97444.25;;;10.20;100.00
37634;BME280;32048;49.902;22.508;2023-04-25T04:53:28;97431.78;;;10.23;100.00
37634;BME280;32048;49.902;22.508;2023-04-25T04:55:55;97436.09;;;10.24;100.00
37634;BME280;32048;49.902;22.508;2023-04-25T04:58:22;97434.19;;;10.26;100.00
37634;BME280;32048;49.902;22.508;2023-04-25T05:00:50;97432.53;;;10.25;100.00
37634;BME280;32048;49.902;22.508;2023-04-25T05:03:17;97437.91;;;10.23;100.00
37634;BME280;32048;49.902;22.508;2023-04-25T05:05:44;97437.91;;;10.23;100.00
37634;BME280;32048;49.902;22.508;2023-04-25T05:08:12;97439.72;;;10.23;100.00
37634;BME280;32048;49.902;22.508;2023-04-25T05:10:39;97437.41;;;10.18;100.00
37634;BME280;32048;49.902;22.508;2023-04-25T05:13:06;97435.81;;;10.15;100.00
37634;BME280;32048;49.902;22.508;2023-04-25T05:15:33;97435.69;;;10.17;100.00
37634;BME280;32048;49.902;22.508;2023-04-25T05:18:00;97433.69;;;10.20;100.00
37634;BME280;32048;49.902;22.508;2023-04-25T05:20:28;97434.44;;;10.23;100.00
37634;BME280;32048;49.902;22.508;2023-04-25T05:22:55;97434.44;;;10.23;100.00
37634;BME280;32048;49.902;22.508;2023-04-25T05:25:22;97430.00;;;10.23;100.00
37634;BME280;32048;49.902;22.508;2023-04-25T05:27:50;97434.44;;;10.23;100.00
37634;BME280;32048;49.902;22.508;2023-04-25T05:30:18;97440.66;;;10.22;100.00
37634;BME280;32048;49.902;22.508;2023-04-25T05:32:44;97439.06;;;10.19;100.00
37634;BME280;32048;49.902;22.508;2023-04-25T05:35:13;97438.00;;;10.22;100.00
37634;BME280;32048;49.902;22.508;2023-04-25T05:37:40;97436.19;;;10.22;100.00
37634;BME280;32048;49.902;22.508;2023-04-25T05:40:08;97444.03;;;10.24;100.00
37634;BME280;32048;49.902;22.508;2023-04-25T05:42:35;97443.78;;;10.27;100.00
37634;BME280;32048;49.902;22.508;2023-04-25T05:45:02;97438.41;;;10.28;100.00
37634;BME280;32048;49.902;22.508;2023-04-25T05:47:29;97442.56;;;10.32;100.00
37634;BME280;32048;49.902;22.508;2023-04-25T05:49:57;97445.59;;;10.39;100.00
37634;BME280;32048;49.902;22.508;2023-04-25T05:52:24;97433.97;;;10.42;100.00
37634;BME280;32048;49.902;22.508;2023-04-25T05:54:51;97445.16;;;10.45;100.00
37634;BME280;32048;49.902;22.508;2023-04-25T05:57:26;97438.81;;;10.48;100.00
37634;BME280;32048;49.902;22.508;2023-04-25T05:59:54;97437.50;;;10.53;100.00
37634;BME280;32048;49.902;22.508;2023-04-25T06:02:21;97430.13;;;10.58;100.00
37634;BME280;32048;49.902;22.508;2023-04-25T06:04:50;97438.44;;;10.65;100.00
37634;BME280;32048;49.902;22.508;2023-04-25T06:07:18;97435.56;;;10.68;100.00
37634;BME280;32048;49.902;22.508;2023-04-25T06:09:46;97436.28;;;10.70;100.00
37634;BME280;32048;49.902;22.508;2023-04-25T06:12:13;97432.66;;;10.71;100.00
37634;BME280;32048;49.902;22.508;2023-04-25T06:14:41;97433.31;;;10.75;100.00
37634;BME280;32048;49.902;22.508;2023-04-25T06:17:08;97437.75;;;10.74;100.00
37634;BME280;32048;49.902;22.508;2023-04-25T06:19:35;97435.94;;;10.75;100.00
37634;BME280;32048;49.902;22.508;2023-04-25T06:22:02;97436.19;;;10.72;100.00
37634;BME280;32048;49.902;22.508;2023-04-25T06:24:30;97431.72;;;10.72;100.00
37634;BME280;32048;49.902;22.508;2023-04-25T06:26:57;97434.13;;;10.75;100.00
37634;BME280;32048;49.902;22.508;2023-04-25T06:29:24;97432.84;;;10.81;100.00
37634;BME280;32048;49.902;22.508;2023-04-25T06:31:51;97432.28;;;10.89;100.00
37634;BME280;32048;49.902;22.508;2023-04-25T06:34:19;97435.19;;;10.97;100.00
37634;BME280;32048;49.902;22.508;2023-04-25T06:36:46;97434.41;;;11.08;100.00
37634;BME280;32048;49.902;22.508;2023-04-25T06:39:13;97429.59;;;11.13;100.00
37634;BME280;32048;49.902;22.508;2023-04-25T06:41:40;97433.44;;;11.20;100.00
37634;BME280;32048;49.902;22.508;2023-04-25T06:44:07;97425.56;;;11.31;100.00
37634;BME280;32048;49.902;22.508;2023-04-25T06:46:34;97429.28;;;11.40;100.00
37634;BME280;32048;49.902;22.508;2023-04-25T06:49:01;97420.66;;;11.49;100.00
37634;BME280;32048;49.902;22.508;2023-04-25T06:51:28;97428.34;;;11.52;100.00
37634;BME280;32048;49.902;22.508;2023-04-25T06:53:56;97424.75;;;11.53;100.00
37634;BME280;32048;49.902;22.508;2023-04-25T06:56:23;97427.88;;;11.58;100.00
37634;BME280;32048;49.902;22.508;2023-04-25T06:58:51;97423.06;;;11.63;100.00
37634;BME280;32048;49.902;22.508;2023-04-25T07:01:18;97428.03;;;11.68;100.00
37634;BME280;32048;49.902;22.508;2023-04-25T07:03:45;97426.69;;;11.74;100.00
37634;BME280;32048;49.902;22.508;2023-04-25T07:06:13;97432.59;;;11.77;100.00
37634;BME280;32048;49.902;22.508;2023-04-25T07:08:40;97423.31;;;11.83;100.00
37634;BME280;32048;49.902;22.508;2023-04-25T07:11:07;97430.66;;;11.79;100.00
37634;BME280;32048;49.902;22.508;2023-04-25T07:13:34;97425.38;;;11.79;100.00
37634;BME280;32048;49.902;22.508;2023-04-25T07:16:01;97426.22;;;11.80;100.00
37634;BME280;32048;49.902;22.508;2023-04-25T07:18:28;97426.94;;;11.82;100.00
37634;BME280;32048;49.902;22.508;2023-04-25T07:20:55;97432.81;;;11.85;100.00
37634;BME280;32048;49.902;22.508;2023-04-25T07:23:22;97425.41;;;11.91;100.00
37634;BME280;32048;49.902;22.508;2023-04-25T07:25:49;97433.56;;;11.88;100.00
37634;BME280;32048;49.902;22.508;2023-04-25T07:28:16;97426.69;;;11.85;100.00
37634;BME280;32048;49.902;22.508;2023-04-25T07:30:45;97429.00;;;11.90;100.00
37634;BME280;32048;49.902;22.508;2023-04-25T07:33:12;97430.06;;;11.87;100.00
37634;BME280;32048;49.902;22.508;2023-04-25T07:35:39;97433.78;;;11.84;100.00
37634;BME280;32048;49.902;22.508;2023-04-25T07:38:06;97432.34;;;11.80;100.00
37634;BME280;32048;49.902;22.508;2023-04-25T07:40:34;97433.44;;;11.78;100.00
37634;BME280;32048;49.902;22.508;2023-04-25T07:43:02;97434.72;;;11.72;100.00
37634;BME280;32048;49.902;22.508;2023-04-25T07:45:29;97429.81;;;11.68;100.00
37634;BME280;32048;49.902;22.508;2023-04-25T07:47:56;97434.38;;;11.65;100.00
37634;BME280;32048;49.902;22.508;2023-04-25T07:50:23;97429.94;;;11.66;100.00
37634;BME280;32048;49.902;22.508;2023-04-25T07:52:51;97433.06;;;11.71;100.00
37634;BME280;32048;49.902;22.508;2023-04-25T07:55:18;97436.53;;;11.72;100.00
37634;BME280;32048;49.902;22.508;2023-04-25T07:57:45;97428.50;;;11.73;100.00
37634;BME280;32048;49.902;22.508;2023-04-25T08:00:12;97437.00;;;11.77;100.00
37634;BME280;32048;49.902;22.508;2023-04-25T08:02:40;97433.44;;;11.78;100.00
37634;BME280;32048;49.902;22.508;2023-04-25T08:05:07;97434.16;;;11.80;100.00
37634;BME280;32048;49.902;22.508;2023-04-25T08:07:35;97439.44;;;11.80;100.00
37634;BME280;32048;49.902;22.508;2023-04-25T08:10:02;97433.91;;;11.83;100.00
37634;BME280;32048;49.902;22.508;2023-04-25T08:12:29;97435.34;;;11.87;100.00
37634;BME280;32048;49.902;22.508;2023-04-25T08:14:56;97439.31;;;11.93;100.00
37634;BME280;32048;49.902;22.508;2023-04-25T08:17:23;97440.41;;;11.90;100.00
37634;BME280;32048;49.902;22.508;2023-04-25T08:19:50;97443.63;;;11.82;100.00
37634;BME280;32048;49.902;22.508;2023-04-25T08:22:17;97444.72;;;11.69;100.00
37634;BME280;32048;49.902;22.508;2023-04-25T08:24:44;97462.44;;;11.33;100.00
37634;BME280;32048;49.902;22.508;2023-04-25T08:27:11;97457.94;;;11.11;100.00
37634;BME280;32048;49.902;22.508;2023-04-25T08:29:39;97464.09;;;10.98;100.00
37634;BME280;32048;49.902;22.508;2023-04-25T08:32:06;97469.69;;;10.82;100.00
37634;BME280;32048;49.902;22.508;2023-04-25T08:34:33;97473.53;;;10.78;100.00
37634;BME280;32048;49.902;22.508;2023-04-25T08:37:00;97465.91;;;10.74;100.00
37634;BME280;32048;49.902;22.508;2023-04-25T08:39:27;97474.47;;;10.77;100.00
37634;BME280;32048;49.902;22.508;2023-04-25T08:41:56;97476.28;;;10.77;100.00
37634;BME280;32048;49.902;22.508;2023-04-25T08:44:23;97476.03;;;10.80;100.00
37634;BME280;32048;49.902;22.508;2023-04-25T08:46:52;97485.28;;;10.74;100.00
37634;BME280;32048;49.902;22.508;2023-04-25T08:49:19;97482.09;;;10.69;100.00
37634;BME280;32048;49.902;22.508;2023-04-25T08:51:46;97484.41;;;10.74;100.00
37634;BME280;32048;49.902;22.508;2023-04-25T08:54:14;97488.81;;;10.86;100.00
37634;BME280;32048;49.902;22.508;2023-04-25T08:57:02;97493.75;;;10.91;100.00
37634;BME280;32048;49.902;22.508;2023-04-25T08:59:32;97490.94;;;10.81;100.00
37634;BME280;32048;49.902;22.508;2023-04-25T09:02:00;97499.72;;;10.81;100.00
37634;BME280;32048;49.902;22.508;2023-04-25T09:04:27;97497.91;;;10.82;100.00
37634;BME280;32048;49.902;22.508;2023-04-25T09:06:56;97504.69;;;10.73;100.00
37634;BME280;32048;49.902;22.508;2023-04-25T09:09:24;97505.75;;;10.71;100.00
37634;BME280;32048;49.902;22.508;2023-04-25T09:11:54;97502.81;;;10.63;100.00
37634;BME280;32048;49.902;22.508;2023-04-25T09:14:22;97515.75;;;10.54;100.00
37634;BME280;32048;49.902;22.508;2023-04-25T09:19:24;97519.47;;;10.52;100.00
37634;BME280;32048;49.902;22.508;2023-04-25T09:22:05;97518.19;;;10.45;100.00
37634;BME280;32048;49.902;22.508;2023-04-25T09:24:43;97518.31;;;10.43;100.00
37634;BME280;32048;49.902;22.508;2023-04-25T09:27:12;97523.59;;;10.30;100.00
37634;BME280;32048;49.902;22.508;2023-04-25T09:29:40;97524.25;;;10.34;100.00
37634;BME280;32048;49.902;22.508;2023-04-25T09:32:22;97524.44;;;10.31;100.00
37634;BME280;32048;49.902;22.508;2023-04-25T09:37:19;97531.09;;;10.36;100.00
37634;BME280;32048;49.902;22.508;2023-04-25T09:39:53;97528.47;;;10.36;100.00
37634;BME280;32048;49.902;22.508;2023-04-25T09:42:27;97531.19;;;10.22;100.00
37634;BME280;32048;49.902;22.508;2023-04-25T09:44:57;97533.81;;;10.22;100.00
37634;BME280;32048;49.902;22.508;2023-04-25T09:47:25;97535.00;;;10.18;100.00
37634;BME280;32048;49.902;22.508;2023-04-25T09:49:54;97531.72;;;10.14;100.00
37634;BME280;32048;49.902;22.508;2023-04-25T09:52:23;97535.34;;;10.13;100.00
37634;BME280;32048;49.902;22.508;2023-04-25T09:54:52;97539.03;;;9.98;100.00
37634;BME280;32048;49.902;22.508;2023-04-25T09:57:21;97548.19;;;9.79;100.00
37634;BME280;32048;49.902;22.508;2023-04-25T09:59:53;97545.84;;;9.75;100.00
37634;BME280;32048;49.902;22.508;2023-04-25T10:02:22;97537.53;;;9.68;100.00
37634;BME280;32048;49.902;22.508;2023-04-25T10:04:52;97542.69;;;9.70;100.00
37634;BME280;32048;49.902;22.508;2023-04-25T10:07:23;97540.72;;;9.73;100.00
37634;BME280;32048;49.902;22.508;2023-04-25T10:10:01;97547.56;;;9.76;100.00
37634;BME280;32048;49.902;22.508;2023-04-25T10:12:32;97545.75;;;9.76;100.00
37634;BME280;32048;49.902;22.508;2023-04-25T10:15:00;97549.25;;;9.64;100.00
37634;BME280;32048;49.902;22.508;2023-04-25T10:17:27;97547.63;;;9.62;100.00
37634;BME280;32048;49.902;22.508;2023-04-25T10:19:57;97550.91;;;9.65;100.00
37634;BME280;32048;49.902;22.508;2023-04-25T10:22:37;97549.97;;;9.66;100.00
37634;BME280;32048;49.902;22.508;2023-04-25T10:25:06;97551.97;;;9.63;100.00
37634;BME280;32048;49.902;22.508;2023-04-25T10:27:35;97555.75;;;9.58;100.00
37634;BME280;32048;49.902;22.508;2023-04-25T10:30:04;97554.50;;;9.51;100.00
37634;BME280;32048;49.902;22.508;2023-04-25T10:32:35;97561.44;;;9.40;100.00
37634;BME280;32048;49.902;22.508;2023-04-25T10:35:17;97561.81;;;9.33;100.00
37634;BME280;32048;49.902;22.508;2023-04-25T10:38:04;97550.94;;;9.25;100.00
37634;BME280;32048;49.902;22.508;2023-04-25T10:40:32;97559.06;;;9.22;100.00
37634;BME280;32048;49.902;22.508;2023-04-25T10:46:01;97563.28;;;9.25;100.00
37634;BME280;32048;49.902;22.508;2023-04-25T10:48:31;97571.72;;;9.30;100.00
37634;BME280;32048;49.902;22.508;2023-04-25T10:51:16;97562.44;;;9.24;100.00
37634;BME280;32048;49.902;22.508;2023-04-25T10:54:04;97564.41;;;9.21;100.00
37634;BME280;32048;49.902;22.508;2023-04-25T10:56:42;97567.56;;;9.13;100.00
37634;BME280;32048;49.902;22.508;2023-04-25T10:59:16;97569.53;;;9.09;100.00
37634;BME280;32048;49.902;22.508;2023-04-25T11:01:51;97575.63;;;9.10;100.00
37634;BME280;32048;49.902;22.508;2023-04-25T11:09:38;97573.88;;;9.10;100.00
37634;BME280;32048;49.902;22.508;2023-04-25T11:12:08;97587.13;;;9.09;100.00
37634;BME280;32048;49.902;22.508;2023-04-25T11:14:35;97581.25;;;9.18;100.00
37634;BME280;32048;49.902;22.508;2023-04-25T11:17:03;97580.03;;;9.24;100.00
37634;BME280;32048;49.902;22.508;2023-04-25T11:19:30;97580.75;;;9.26;100.00
37634;BME280;32048;49.902;22.508;2023-04-25T11:22:02;97573.50;;;9.29;100.00
37634;BME280;32048;49.902;22.508;2023-04-25T11:24:30;97578.56;;;9.32;100.00
37634;BME280;32048;49.902;22.508;2023-04-25T11:26:58;97579.44;;;9.33;100.00
37634;BME280;32048;49.902;22.508;2023-04-25T11:29:30;97579.97;;;9.38;100.00
37634;BME280;32048;49.902;22.508;2023-04-25T11:31:58;97580.50;;;9.43;100.00
37634;BME280;32048;49.902;22.508;2023-04-25T11:34:26;97576.50;;;9.50;100.00
37634;BME280;32048;49.902;22.508;2023-04-25T11:36:53;97585.38;;;9.49;100.00
37634;BME280;32048;49.902;22.508;2023-04-25T11:39:20;97585.31;;;9.36;100.00
37634;BME280;32048;49.902;22.508;2023-04-25T11:41:48;97575.59;;;9.24;100.00
37634;BME280;32048;49.902;22.508;2023-04-25T11:44:16;97577.97;;;9.14;100.00
37634;BME280;32048;49.902;22.508;2023-04-25T11:46:44;97577.66;;;9.06;100.00
37634;BME280;32048;49.902;22.508;2023-04-25T11:49:11;97580.91;;;9.10;100.00
37634;BME280;32048;49.902;22.508;2023-04-25T11:51:43;97585.69;;;9.18;100.00
37634;BME280;32048;49.902;22.508;2023-04-25T11:54:11;97587.38;;;9.19;100.00
37634;BME280;32048;49.902;22.508;2023-04-25T11:56:45;97592.63;;;9.19;100.00
37634;BME280;32048;49.902;22.508;2023-04-25T11:59:13;97583.75;;;9.07;100.00
37634;BME280;32048;49.902;22.508;2023-04-25T12:01:46;97582.78;;;9.08;100.00
37634;BME280;32048;49.902;22.508;2023-04-25T12:04:22;97587.53;;;9.03;100.00
37634;BME280;32048;49.902;22.508;2023-04-25T12:06:52;97589.63;;;8.98;100.00
37634;BME280;32048;49.902;22.508;2023-04-25T12:09:28;97589.63;;;8.98;100.00
37634;BME280;32048;49.902;22.508;2023-04-25T12:11:57;97586.53;;;8.91;100.00
37634;BME280;32048;49.902;22.508;2023-04-25T12:16:56;97591.53;;;8.81;100.00
37634;BME280;32048;49.902;22.508;2023-04-25T12:19:25;97586.53;;;8.77;100.00
37634;BME280;32048;49.902;22.508;2023-04-25T12:21:53;97591.09;;;8.74;100.00
37634;BME280;32048;49.902;22.508;2023-04-25T12:24:26;97593.59;;;8.76;100.00
37634;BME280;32048;49.902;22.508;2023-04-25T12:26:59;97593.31;;;8.81;100.00
37634;BME280;32048;49.902;22.508;2023-04-25T12:29:29;97599.16;;;8.71;100.00
37634;BME280;32048;49.902;22.508;2023-04-25T12:32:08;97592.84;;;8.74;100.00
37634;BME280;32048;49.902;22.508;2023-04-25T12:34:35;97593.59;;;8.76;100.00
37634;BME280;32048;49.902;22.508;2023-04-25T12:37:02;97585.72;;;8.76;100.00
37634;BME280;32048;49.902;22.508;2023-04-25T12:39:30;97601.03;;;8.84;100.00
37634;BME280;32048;49.902;22.508;2023-04-25T12:41:57;97588.50;;;8.87;100.00
37634;BME280;32048;49.902;22.508;2023-04-25T12:44:25;97595.06;;;8.94;100.00
37634;BME280;32048;49.902;22.508;2023-04-25T12:46:52;97588.19;;;9.06;100.00
37634;BME280;32048;49.902;22.508;2023-04-25T12:49:21;97586.53;;;9.18;100.00
37634;BME280;32048;49.902;22.508;2023-04-25T12:51:49;97584.84;;;9.17;100.00
37634;BME280;32048;49.902;22.508;2023-04-25T12:54:16;97580.16;;;9.08;100.00
37634;BME280;32048;49.902;22.508;2023-04-25T12:56:43;97580.72;;;9.13;100.00
37634;BME280;32048;49.902;22.508;2023-04-25T12:59:10;97581.78;;;9.10;100.00
37634;BME280;32048;49.902;22.508;2023-04-25T13:01:37;97574.72;;;9.11;100.00
37634;BME280;32048;49.902;22.508;2023-04-25T13:04:05;97579.84;;;9.12;100.00
37634;BME280;32048;49.902;22.508;2023-04-25T13:06:32;97578.69;;;9.04;100.00
37634;BME280;32048;49.902;22.508;2023-04-25T13:08:59;97585.94;;;9.00;100.00